Time;durP1;ratioP1;P1;durP2;ratioP2;P2;SDS_P1;SDS_P2;PMS_P1;PMS_P2;Temp;Humidity;BMP_temperature;BMP_pressure;BME280_temperature;BME280_humidity;BME280_pressure;Samples;Min_cycle;Max_cycle;Signal;HPM_P1;HPM_P2
2022/09/24 00:00:56;;;;;;;;;;;;;;;4.54;100.00;99076.79;104931;1273;61376;-69
2022/09/24 00:03:29;;;;;;;;;;;;;;;4.53;100.00;99073.63;104761;1273;61290;-70
2022/09/24 00:06:00;;;;;;;;;;;;;;;4.54;100.00;99077.84;104740;1273;75462;-70
2022/09/24 00:08:26;;;;;;;;;;;;;;;4.53;100.00;99078.90;104787;1273;69330;-69
2022/09/24 00:10:55;;;;;;;;;;;;;;;4.54;100.00;99073.45;104690;1273;61286;-70
2022/09/24 00:13:22;;;;;;;;;;;;;;;4.54;100.00;99076.05;104669;1273;61369;-69
2022/09/24 00:15:49;;;;;;;;;;;;;;;4.54;100.00;99073.76;104645;1273;61385;-70
2022/09/24 00:18:17;;;;;;;;;;;;;;;4.54;100.00;99072.70;104713;1273;75791;-70
2022/09/24 00:20:44;;;;;;;;;;;;;;;4.55;100.00;99072.50;104705;1273;69633;-70
2022/09/24 00:23:10;;;;;;;;;;;;;;;4.56;100.00;99072.66;104525;1274;74467;-71
2022/09/24 00:28:26;;;;;;;;;;;;;;;4.59;100.00;99071.27;104918;1273;61575;-71
2022/09/24 00:30:52;;;;;;;;;;;;;;;4.61;100.00;99070.67;104916;1273;75133;-71
2022/09/24 00:33:19;;;;;;;;;;;;;;;4.62;100.00;99065.52;104634;1273;61275;-70
2022/09/24 00:35:45;;;;;;;;;;;;;;;4.64;100.00;99062.98;104643;1273;61389;-69
2022/09/24 00:38:12;;;;;;;;;;;;;;;4.64;100.00;99058.60;104642;1273;61325;-70
2022/09/24 00:40:38;;;;;;;;;;;;;;;4.63;100.00;99058.98;104653;1273;61303;-70
2022/09/24 00:43:24;;;;;;;;;;;;;;;4.61;100.00;99055.38;104636;1273;75376;-69
2022/09/24 00:45:53;;;;;;;;;;;;;;;4.60;100.00;99052.42;104700;1273;68710;-70
2022/09/24 00:48:20;;;;;;;;;;;;;;;4.57;100.00;99049.36;104656;1273;73467;-70
2022/09/24 00:50:47;;;;;;;;;;;;;;;4.54;100.00;99050.89;104645;1273;61336;-70
2022/09/24 00:53:15;;;;;;;;;;;;;;;4.51;100.00;99046.78;104749;1273;61289;-70
2022/09/24 00:55:43;;;;;;;;;;;;;;;4.48;100.00;99045.70;104675;1273;74378;-69
2022/09/24 00:58:09;;;;;;;;;;;;;;;4.45;100.00;99044.45;104505;1276;70384;-70
2022/09/24 01:00:37;;;;;;;;;;;;;;;4.41;100.00;99040.36;104714;1273;73178;-70
2022/09/24 01:03:08;;;;;;;;;;;;;;;4.39;100.00;99037.45;104765;1273;61338;-69
2022/09/24 01:05:36;;;;;;;;;;;;;;;4.36;100.00;99035.98;104656;1273;61350;-69
2022/09/24 01:08:03;;;;;;;;;;;;;;;4.33;100.00;99036.98;104571;1274;75986;-70
2022/09/24 01:10:49;;;;;;;;;;;;;;;4.30;100.00;99039.95;104705;1274;69374;-70
2022/09/24 01:13:23;;;;;;;;;;;;;;;4.26;100.00;99039.73;104952;1274;73231;-71
2022/09/24 01:16:12;;;;;;;;;;;;;;;4.24;100.00;99037.04;104664;1275;61832;-70
2022/09/24 01:19:02;;;;;;;;;;;;;;;4.21;100.00;99032.41;104674;1274;61351;-71
2022/09/24 01:21:35;;;;;;;;;;;;;;;4.17;100.00;99026.73;104796;1274;75602;-71
2022/09/24 01:24:04;;;;;;;;;;;;;;;4.15;100.00;99028.03;104658;1275;70162;-71
2022/09/24 01:26:41;;;;;;;;;;;;;;;4.13;100.00;99025.49;104623;1274;71752;-69
2022/09/24 01:29:27;;;;;;;;;;;;;;;4.09;100.00;99021.08;104615;1274;61277;-70
2022/09/24 01:32:02;;;;;;;;;;;;;;;4.07;100.00;99015.73;104870;1274;61378;-70
2022/09/24 01:34:35;;;;;;;;;;;;;;;4.04;100.00;99015.31;104921;1276;76601;-70
2022/09/24 01:37:02;;;;;;;;;;;;;;;4.02;100.00;99010.11;104912;1274;70421;-69
2022/09/24 01:39:30;;;;;;;;;;;;;;;3.99;100.00;99009.35;104630;1274;74652;-69
2022/09/24 01:41:58;;;;;;;;;;;;;;;3.95;100.00;99008.80;104658;1274;61394;-69
2022/09/24 01:44:25;;;;;;;;;;;;;;;3.92;100.00;99006.27;104673;1276;61589;-69
2022/09/24 01:46:52;;;;;;;;;;;;;;;3.92;100.00;99007.01;104584;1274;76091;-70
2022/09/24 01:49:18;;;;;;;;;;;;;;;3.91;100.00;99003.68;104674;1274;69399;-70
2022/09/24 01:51:48;;;;;;;;;;;;;;;3.90;100.00;99004.60;104611;1274;62827;-72
2022/09/24 01:54:22;;;;;;;;;;;;;;;3.89;100.00;99000.61;104877;1274;61310;-72
2022/09/24 01:57:15;;;;;;;;;;;;;;;3.86;100.00;98998.63;104675;1275;61371;-69
2022/09/24 01:59:45;;;;;;;;;;;;;;;3.83;100.00;98995.92;104299;1278;76114;-70
2022/09/24 02:02:18;;;;;;;;;;;;;;;3.80;100.00;98997.45;104323;1279;68729;-69
2022/09/24 02:04:50;;;;;;;;;;;;;;;3.77;100.00;98996.00;104398;1278;73428;-69
2022/09/24 02:07:22;;;;;;;;;;;;;;;3.73;100.00;98998.05;104355;1281;61411;-70
2022/09/24 02:09:48;;;;;;;;;;;;;;;3.69;100.00;98996.48;104316;1278;61317;-70
2022/09/24 02:12:22;;;;;;;;;;;;;;;3.65;100.00;99001.03;104257;1278;61422;-71
2022/09/24 02:14:53;;;;;;;;;;;;;;;3.62;100.00;98999.73;104281;1279;68922;-70
2022/09/24 02:17:24;;;;;;;;;;;;;;;3.59;100.00;99001.44;104343;1279;73330;-70
2022/09/24 02:19:52;;;;;;;;;;;;;;;3.56;100.00;99004.38;104332;1278;61312;-70
2022/09/24 02:22:19;;;;;;;;;;;;;;;3.55;100.00;99000.17;104473;1279;61357;-71
2022/09/24 02:24:50;;;;;;;;;;;;;;;3.55;100.00;98998.23;104437;1277;74962;-71
2022/09/24 02:27:17;;;;;;;;;;;;;;;3.54;100.00;98998.98;104309;1278;69560;-69
2022/09/24 02:29:43;;;;;;;;;;;;;;;3.53;100.00;99001.33;104292;1278;73493;-69
2022/09/24 02:32:12;;;;;;;;;;;;;;;3.52;100.00;99000.11;104286;1279;61379;-70
2022/09/24 02:34:43;;;;;;;;;;;;;;;3.52;100.00;98997.47;104368;1278;61699;-70
2022/09/24 02:37:10;;;;;;;;;;;;;;;3.51;100.00;98998.55;104461;1276;75323;-70
2022/09/24 02:39:37;;;;;;;;;;;;;;;3.49;100.00;98993.56;104734;1274;69831;-71
2022/09/24 02:42:05;;;;;;;;;;;;;;;3.46;100.00;98993.66;104644;1275;73739;-70
2022/09/24 02:44:32;;;;;;;;;;;;;;;3.44;100.00;98991.09;104727;1274;61440;-71
2022/09/24 02:46:59;;;;;;;;;;;;;;;3.41;100.00;98987.88;104691;1274;61192;-70
2022/09/24 02:49:25;;;;;;;;;;;;;;;3.40;100.00;98984.25;104658;1274;76357;-71
2022/09/24 02:51:52;;;;;;;;;;;;;;;3.38;100.00;98982.59;104921;1274;61292;-70
2022/09/24 02:54:18;;;;;;;;;;;;;;;3.36;100.00;98982.80;104513;1277;61459;-70
2022/09/24 02:56:45;;;;;;;;;;;;;;;3.35;100.00;98983.75;104867;1274;61335;-71
2022/09/24 02:59:11;;;;;;;;;;;;;;;3.33;100.00;98984.34;104138;1274;1002902;-70
2022/09/24 03:01:38;;;;;;;;;;;;;;;3.30;100.00;98988.11;104898;1274;61349;-72
2022/09/24 03:04:05;;;;;;;;;;;;;;;3.29;100.00;98993.59;104910;1273;69339;-70
2022/09/24 03:06:31;;;;;;;;;;;;;;;3.29;100.00;98991.84;104810;1274;61376;-71
2022/09/24 03:08:58;;;;;;;;;;;;;;;3.27;100.00;98986.15;104618;1274;61233;-70
2022/09/24 03:11:24;;;;;;;;;;;;;;;3.25;100.00;98984.98;104653;1275;61338;-70
2022/09/24 03:13:51;;;;;;;;;;;;;;;3.24;100.00;98983.62;104620;1274;61240;-71
2022/09/24 03:16:17;;;;;;;;;;;;;;;3.23;100.00;98983.29;104587;1275;61462;-69
2022/09/24 03:18:45;;;;;;;;;;;;;;;3.22;100.00;98982.09;104691;1274;73451;-69
2022/09/24 03:21:13;;;;;;;;;;;;;;;3.23;100.00;98985.22;104613;1275;61287;-70
2022/09/24 03:23:40;;;;;;;;;;;;;;;3.24;100.00;98980.10;104637;1274;61288;-69
2022/09/24 03:26:07;;;;;;;;;;;;;;;3.26;100.00;98978.27;104629;1274;75272;-69
2022/09/24 03:28:34;;;;;;;;;;;;;;;3.26;100.00;98977.02;104719;1274;69320;-69
2022/09/24 03:31:00;;;;;;;;;;;;;;;3.27;100.00;98971.58;104649;1274;73253;-69
2022/09/24 03:33:30;;;;;;;;;;;;;;;3.27;100.00;98971.38;104643;1274;61353;-70
2022/09/24 03:35:57;;;;;;;;;;;;;;;3.28;100.00;98964.33;104651;1274;61179;-69
2022/09/24 03:38:24;;;;;;;;;;;;;;;3.30;100.00;98963.17;104790;1274;75246;-70
2022/09/24 03:40:51;;;;;;;;;;;;;;;3.33;100.00;98964.48;104699;1274;69502;-70
2022/09/24 03:43:18;;;;;;;;;;;;;;;3.35;100.00;98963.70;104636;1274;74918;-70
2022/09/24 03:45:44;;;;;;;;;;;;;;;3.40;100.00;98966.34;104725;1274;61372;-71
2022/09/24 03:48:11;;;;;;;;;;;;;;;3.43;100.00;98966.91;104641;1274;61992;-70
2022/09/24 03:50:38;;;;;;;;;;;;;;;3.45;100.00;98964.20;104614;1274;61340;-70
2022/09/24 03:53:04;;;;;;;;;;;;;;;3.46;100.00;98965.73;104638;1274;69413;-70
2022/09/24 03:55:30;;;;;;;;;;;;;;;3.48;100.00;98967.79;104628;1274;61896;-70
2022/09/24 03:57:57;;;;;;;;;;;;;;;3.49;100.00;98964.56;104616;1274;61399;-70
2022/09/24 04:00:23;;;;;;;;;;;;;;;3.53;100.00;98968.46;104642;1275;61342;-71
2022/09/24 04:02:50;;;;;;;;;;;;;;;3.59;100.00;98969.47;104721;1274;61239;-70
2022/09/24 04:05:16;;;;;;;;;;;;;;;3.63;100.00;98969.31;104575;1275;61453;-70
2022/09/24 04:07:43;;;;;;;;;;;;;;;3.64;100.00;98968.52;104638;1274;61393;-70
2022/09/24 04:10:10;;;;;;;;;;;;;;;3.66;100.00;98967.43;104653;1274;61396;-70
2022/09/24 04:12:36;;;;;;;;;;;;;;;3.67;100.00;98969.48;104653;1274;61265;-71
2022/09/24 04:15:03;;;;;;;;;;;;;;;3.69;100.00;98973.46;104781;1274;61333;-70
2022/09/24 04:17:33;;;;;;;;;;;;;;;3.70;100.00;98974.65;104681;1275;69375;-70
2022/09/24 04:20:00;;;;;;;;;;;;;;;3.70;100.00;98973.58;104724;1273;73365;-70
2022/09/24 04:22:28;;;;;;;;;;;;;;;3.70;100.00;98971.47;104925;1274;61262;-69
2022/09/24 04:24:56;;;;;;;;;;;;;;;3.69;100.00;98972.40;104915;1274;61330;-71
2022/09/24 04:27:23;;;;;;;;;;;;;;;3.69;100.00;98975.73;104700;1274;76363;-72
2022/09/24 04:29:49;;;;;;;;;;;;;;;3.69;100.00;98971.71;104748;1274;70768;-72
2022/09/24 04:32:15;;;;;;;;;;;;;;;3.71;100.00;98970.92;104861;1274;61294;-71
2022/09/24 04:34:42;;;;;;;;;;;;;;;3.73;100.00;98967.48;104917;1274;61299;-72
2022/09/24 04:37:09;;;;;;;;;;;;;;;3.75;100.00;98969.70;104886;1274;61401;-71
2022/09/24 04:39:35;;;;;;;;;;;;;;;3.77;100.00;98966.67;104641;1274;61282;-70
2022/09/24 04:42:01;;;;;;;;;;;;;;;3.78;100.00;98961.86;104707;1274;61313;-72
2022/09/24 04:44:29;;;;;;;;;;;;;;;3.80;100.00;98957.58;104910;1274;61355;-71
2022/09/24 04:47:00;;;;;;;;;;;;;;;3.82;100.00;98954.30;104903;1273;61308;-70
2022/09/24 04:49:28;;;;;;;;;;;;;;;3.85;100.00;98951.23;104985;1274;61301;-70
2022/09/24 04:51:57;;;;;;;;;;;;;;;3.88;100.00;98950.04;104819;1274;74919;-71
2022/09/24 04:54:24;;;;;;;;;;;;;;;3.99;100.00;98952.60;104954;1273;70495;-71
2022/09/24 04:56:50;;;;;;;;;;;;;;;4.05;100.00;98948.10;104784;1274;74210;-71
2022/09/24 04:59:17;;;;;;;;;;;;;;;4.04;100.00;98948.17;104700;1274;61385;-70
2022/09/24 05:01:45;;;;;;;;;;;;;;;4.05;100.00;98947.94;104796;1273;61437;-69
2022/09/24 05:04:11;;;;;;;;;;;;;;;4.10;100.00;98943.69;104886;1274;74651;-71
2022/09/24 05:06:38;;;;;;;;;;;;;;;4.17;100.00;98940.41;104708;1274;61179;-70
2022/09/24 05:09:04;;;;;;;;;;;;;;;4.25;100.00;98940.59;104921;1274;61398;-71
2022/09/24 05:11:31;;;;;;;;;;;;;;;4.35;100.00;98938.95;104939;1274;61379;-70
2022/09/24 05:13:58;;;;;;;;;;;;;;;4.47;100.00;98938.08;104688;1273;62062;-70
2022/09/24 05:16:25;;;;;;;;;;;;;;;4.60;100.00;98941.02;104550;1275;61328;-70
2022/09/24 05:18:52;;;;;;;;;;;;;;;4.72;100.00;98942.80;104715;1274;68215;-70
2022/09/24 05:21:19;;;;;;;;;;;;;;;4.87;100.00;98938.80;104893;1274;72159;-70
2022/09/24 05:23:45;;;;;;;;;;;;;;;5.03;100.00;98937.54;104738;1274;61296;-70
2022/09/24 05:28:56;;;;;;;;;;;;;;;5.46;100.00;98931.69;104740;1273;74942;-72
2022/09/24 05:31:23;;;;;;;;;;;;;;;5.64;100.00;98929.59;104913;1274;61334;-71
2022/09/24 05:33:50;;;;;;;;;;;;;;;5.80;100.00;98926.55;104930;1274;74367;-70
2022/09/24 05:36:18;;;;;;;;;;;;;;;6.00;100.00;98928.42;104760;1273;61408;-71
2022/09/24 05:38:44;;;;;;;;;;;;;;;6.29;100.00;98926.96;104969;1273;61844;-71
2022/09/24 05:41:11;;;;;;;;;;;;;;;6.49;100.00;98925.58;104876;1274;75405;-73
2022/09/24 05:43:37;;;;;;;;;;;;;;;6.62;100.00;98924.36;104855;1275;61325;-71
2022/09/24 05:46:04;;;;;;;;;;;;;;;6.72;100.00;98922.13;104931;1274;61308;-71
2022/09/24 05:48:31;;;;;;;;;;;;;;;6.79;100.00;98923.00;104730;1274;61351;-69
2022/09/24 05:50:59;;;;;;;;;;;;;;;6.82;100.00;98925.46;104853;1274;61159;-69
2022/09/24 05:53:25;;;;;;;;;;;;;;;6.84;100.00;98925.19;104705;1274;75998;-71
2022/09/24 05:55:53;;;;;;;;;;;;;;;6.88;100.00;98929.08;104837;1274;69406;-70
2022/09/24 05:58:19;;;;;;;;;;;;;;;6.89;100.00;98929.36;104829;1274;74382;-71
2022/09/24 06:00:45;;;;;;;;;;;;;;;6.92;100.00;98932.02;104898;1274;61193;-71
2022/09/24 06:03:13;;;;;;;;;;;;;;;6.96;100.00;98933.56;104729;1275;61330;-69
2022/09/24 06:05:47;;;;;;;;;;;;;;;7.00;100.00;98934.07;104714;1274;75314;-70
2022/09/24 06:08:17;;;;;;;;;;;;;;;7.04;100.00;98931.16;104729;1274;70512;-70
2022/09/24 06:10:45;;;;;;;;;;;;;;;7.09;100.00;98928.95;104656;1274;71644;-72
2022/09/24 06:13:13;;;;;;;;;;;;;;;7.13;100.00;98932.13;104799;1275;61436;-70
2022/09/24 06:15:41;;;;;;;;;;;;;;;7.12;100.00;98933.38;104911;1273;61158;-71
2022/09/24 06:18:07;;;;;;;;;;;;;;;7.12;100.00;98935.86;104928;1274;75386;-70
2022/09/24 06:20:35;;;;;;;;;;;;;;;7.19;100.00;98936.57;104922;1274;69270;-70
2022/09/24 06:23:02;;;;;;;;;;;;;;;7.29;100.00;98941.52;104902;1274;74336;-71
2022/09/24 06:25:29;;;;;;;;;;;;;;;7.36;100.00;98942.18;104923;1274;61413;-71
2022/09/24 06:28:00;;;;;;;;;;;;;;;7.45;100.00;98946.98;104981;1273;61182;-71
2022/09/24 06:30:34;;;;;;;;;;;;;;;7.57;100.00;98943.55;104972;1273;75171;-70
2022/09/24 06:33:04;;;;;;;;;;;;;;;7.67;100.00;98944.71;104885;1274;69516;-70
2022/09/24 06:35:32;;;;;;;;;;;;;;;7.78;100.00;98946.75;104762;1274;73026;-70
2022/09/24 06:38:00;;;;;;;;;;;;;;;7.81;100.00;98940.05;104882;1273;61289;-70
2022/09/24 06:40:27;;;;;;;;;;;;;;;7.86;100.00;98947.00;104931;1273;61190;-69
2022/09/24 06:42:53;;;;;;;;;;;;;;;7.91;100.00;98944.39;104897;1274;61374;-70
2022/09/24 06:45:20;;;;;;;;;;;;;;;7.98;100.00;98945.61;104660;1274;61379;-70
2022/09/24 06:47:54;;;;;;;;;;;;;;;8.06;100.00;98948.67;104619;1274;73410;-70
2022/09/24 06:50:21;;;;;;;;;;;;;;;8.15;100.00;98946.59;104637;1274;61349;-71
2022/09/24 06:52:47;;;;;;;;;;;;;;;8.27;100.00;98945.38;104696;1273;61143;-70
2022/09/24 06:55:14;;;;;;;;;;;;;;;8.40;100.00;98943.73;104752;1275;73536;-71
2022/09/24 06:57:41;;;;;;;;;;;;;;;8.50;100.00;98941.91;104930;1274;69743;-71
2022/09/24 07:00:08;;;;;;;;;;;;;;;8.58;100.00;98942.15;104686;1274;73416;-70
2022/09/24 07:02:35;;;;;;;;;;;;;;;8.65;100.00;98941.77;104682;1274;61154;-71
2022/09/24 07:05:01;;;;;;;;;;;;;;;8.73;100.00;98940.70;104745;1276;61199;-70
2022/09/24 07:07:28;;;;;;;;;;;;;;;8.84;100.00;98943.42;104640;1273;75352;-70
2022/09/24 07:09:59;;;;;;;;;;;;;;;8.97;100.00;98940.86;104703;1273;69185;-70
2022/09/24 07:12:25;;;;;;;;;;;;;;;9.13;100.00;98942.00;104723;1273;73255;-70
2022/09/24 07:14:52;;;;;;;;;;;;;;;9.30;100.00;98937.94;104831;1273;61315;-71
2022/09/24 07:17:18;;;;;;;;;;;;;;;9.47;100.00;98936.16;104630;1273;61421;-70
2022/09/24 07:19:45;;;;;;;;;;;;;;;9.63;100.00;98937.79;104613;1273;61307;-72
2022/09/24 07:22:12;;;;;;;;;;;;;;;9.83;100.00;98937.20;104930;1273;61292;-72
2022/09/24 07:24:38;;;;;;;;;;;;;;;10.05;100.00;98940.38;104932;1272;73912;-70
2022/09/24 07:27:05;;;;;;;;;;;;;;;10.23;100.00;98939.05;104935;1273;61346;-71
2022/09/24 07:29:32;;;;;;;;;;;;;;;10.40;100.00;98942.55;105005;1273;61370;-70
2022/09/24 07:31:58;;;;;;;;;;;;;;;10.56;100.00;98942.38;104948;1273;61380;-70
2022/09/24 07:34:25;;;;;;;;;;;;;;;10.68;100.00;98946.53;104801;1273;61381;-70
2022/09/24 07:36:54;;;;;;;;;;;;;;;10.78;100.00;98947.63;104620;1273;61365;-71
2022/09/24 07:39:24;;;;;;;;;;;;;;;10.88;100.00;98947.30;104693;1273;61286;-70
2022/09/24 07:41:51;;;;;;;;;;;;;;;10.99;100.00;98945.52;104653;1273;61411;-71
2022/09/24 07:44:21;;;;;;;;;;;;;;;11.08;100.00;98949.86;105035;1273;75542;-72
2022/09/24 07:46:49;;;;;;;;;;;;;;;11.13;100.00;98949.84;104928;1273;70355;-72
2022/09/24 07:49:15;;;;;;;;;;;;;;;11.14;100.00;98945.85;104994;1273;74253;-71
2022/09/24 07:51:42;;;;;;;;;;;;;;;11.19;100.00;98949.80;104887;1273;61340;-71
2022/09/24 07:54:09;;;;;;;;;;;;;;;11.33;100.00;98949.45;104893;1273;61277;-71
2022/09/24 07:56:36;;;;;;;;;;;;;;;11.51;100.00;98952.67;104930;1273;75175;-71
2022/09/24 07:59:05;;;;;;;;;;;;;;;11.71;100.00;98956.71;104904;1273;69344;-71
2022/09/24 08:01:33;;;;;;;;;;;;;;;11.85;100.00;98958.93;104903;1273;73280;-71
2022/09/24 08:04:00;;;;;;;;;;;;;;;11.93;100.00;98960.16;104744;1273;61284;-71
2022/09/24 08:06:26;;;;;;;;;;;;;;;12.00;100.00;98957.48;104916;1273;61296;-70
2022/09/24 08:08:54;;;;;;;;;;;;;;;12.12;100.00;98955.91;104849;1273;61365;-70
2022/09/24 08:11:21;;;;;;;;;;;;;;;12.27;100.00;98960.00;104916;1273;69494;-71
2022/09/24 08:13:47;;;;;;;;;;;;;;;12.40;100.00;98959.70;104897;1273;61299;-71
2022/09/24 08:16:15;;;;;;;;;;;;;;;12.54;100.00;98958.34;104897;1273;61567;-71
2022/09/24 08:18:42;;;;;;;;;;;;;;;12.61;100.00;98956.00;104608;1274;61571;-70
2022/09/24 08:21:10;;;;;;;;;;;;;;;12.64;100.00;98954.31;104712;1274;75998;-71
2022/09/24 08:23:38;;;;;;;;;;;;;;;12.71;100.00;98953.98;104878;1274;69421;-70
2022/09/24 08:26:05;;;;;;;;;;;;;;;12.80;100.00;98950.11;104907;1274;73349;-71
2022/09/24 08:28:32;;;;;;;;;;;;;;;12.88;100.00;98951.99;104904;1273;61410;-70
2022/09/24 08:31:06;;;;;;;;;;;;;;;12.98;100.00;98951.71;104894;1274;61346;-71
2022/09/24 08:33:33;;;;;;;;;;;;;;;13.09;100.00;98950.34;104884;1274;74784;-71
2022/09/24 08:36:00;;;;;;;;;;;;;;;13.11;100.00;98948.93;104924;1274;70786;-71
2022/09/24 08:38:27;;;;;;;;;;;;;;;13.10;100.00;98950.41;104928;1274;74796;-71
2022/09/24 08:41:00;;;;;;;;;;;;;;;13.17;100.00;98952.59;104847;1273;61338;-70
2022/09/24 08:43:36;;;;;;;;;;;;;;;13.30;100.00;98949.09;104911;1274;61179;-70
2022/09/24 08:48:57;;;;;;;;;;;;;;;13.38;100.00;98944.90;104662;1274;68916;-70
2022/09/24 08:51:25;;;;;;;;;;;;;;;13.48;100.00;98943.59;104603;1273;74358;-71
2022/09/24 08:54:01;;;;;;;;;;;;;;;13.49;100.00;98947.98;104804;1273;61302;-70
2022/09/24 08:56:30;;;;;;;;;;;;;;;13.54;100.00;98947.85;104840;1274;61357;-72
2022/09/24 08:58:56;;;;;;;;;;;;;;;13.62;100.00;98946.36;104870;1274;75372;-70
2022/09/24 09:01:22;;;;;;;;;;;;;;;13.68;100.00;98940.49;104902;1274;61275;-70
2022/09/24 09:04:17;;;;;;;;;;;;;;;13.76;100.00;98940.04;104878;1274;61397;-72
2022/09/24 09:06:50;;;;;;;;;;;;;;;13.89;100.00;98936.86;104885;1274;61311;-70
2022/09/24 09:09:19;;;;;;;;;;;;;;;13.91;100.00;98936.92;104649;1274;61676;-71
2022/09/24 09:11:50;;;;;;;;;;;;;;;13.92;100.00;98934.27;104886;1274;75436;-71
2022/09/24 09:14:17;;;;;;;;;;;;;;;14.01;100.00;98931.19;104903;1274;68436;-72
2022/09/24 09:16:43;;;;;;;;;;;;;;;14.09;100.00;98932.18;104987;1273;74096;-70
2022/09/24 09:19:12;;;;;;;;;;;;;;;14.14;100.00;98925.70;104868;1274;61405;-71
2022/09/24 09:21:45;;;;;;;;;;;;;;;14.18;100.00;98924.64;104733;1274;61943;-71
2022/09/24 09:24:16;;;;;;;;;;;;;;;14.23;100.00;98916.53;104962;1273;73942;-70
2022/09/24 09:26:48;;;;;;;;;;;;;;;14.22;100.00;98915.89;104754;1273;68215;-71
2022/09/24 09:29:15;;;;;;;;;;;;;;;14.25;100.00;98909.04;104909;1273;73583;-71
2022/09/24 09:32:03;;;;;;;;;;;;;;;14.40;100.00;98906.38;104923;1274;61214;-71
2022/09/24 09:34:50;;;;;;;;;;;;;;;14.53;100.00;98899.92;104919;1274;61215;-72
2022/09/24 09:37:19;;;;;;;;;;;;;;;14.68;100.00;98898.45;104905;1273;75176;-71
2022/09/24 09:40:09;;;;;;;;;;;;;;;14.74;100.00;98897.41;104915;1274;70500;-70
2022/09/24 09:42:38;;;;;;;;;;;;;;;14.82;100.00;98891.21;104883;1273;74473;-71
2022/09/24 09:45:17;;;;;;;;;;;;;;;14.97;100.00;98890.23;104977;1273;61336;-70
2022/09/24 09:47:46;;;;;;;;;;;;;;;15.02;100.00;98887.66;104901;1274;61419;-70
2022/09/24 09:50:25;;;;;;;;;;;;;;;15.09;100.00;98891.36;104900;1273;75072;-71
2022/09/24 09:52:53;;;;;;;;;;;;;;;15.14;100.00;98889.30;104930;1273;69941;-72
2022/09/24 09:55:22;;;;;;;;;;;;;;;15.13;100.00;98884.77;104937;1273;73421;-71
2022/09/24 09:57:49;;;;;;;;;;;;;;;15.18;100.00;98881.62;104892;1273;61304;-72
2022/09/24 10:00:26;;;;;;;;;;;;;;;15.25;100.00;98880.50;104907;1273;61312;-71
2022/09/24 10:02:53;;;;;;;;;;;;;;;15.32;100.00;98881.84;104899;1273;75430;-71
2022/09/24 10:05:20;;;;;;;;;;;;;;;15.31;100.00;98877.27;104913;1273;69138;-71
2022/09/24 10:07:47;;;;;;;;;;;;;;;15.32;100.00;98878.41;104904;1273;73591;-71
2022/09/24 10:10:22;;;;;;;;;;;;;;;15.32;100.00;98880.39;104920;1273;61404;-71
2022/09/24 10:12:53;;;;;;;;;;;;;;;15.33;100.00;98884.45;105003;1273;61346;-71
2022/09/24 10:15:21;;;;;;;;;;;;;;;15.39;100.00;98879.61;104914;1273;75214;-70
2022/09/24 10:17:49;;;;;;;;;;;;;;;15.45;100.00;98881.27;104842;1273;69386;-70
2022/09/24 10:20:31;;;;;;;;;;;;;;;15.50;100.00;98885.23;104680;1273;74014;-70
2022/09/24 10:22:58;;;;;;;;;;;;;;;15.59;100.00;98882.80;104688;1273;61293;-70
2022/09/24 10:25:25;;;;;;;;;;;;;;;15.67;100.00;98879.11;104843;1273;61394;-72
2022/09/24 10:30:50;;;;;;;;;;;;;;;15.76;100.00;98882.75;104809;1273;70809;-71
2022/09/24 10:33:17;;;;;;;;;;;;;;;15.86;100.00;98879.27;104861;1273;73506;-72
2022/09/24 10:35:44;;;;;;;;;;;;;;;15.93;100.00;98878.96;104820;1274;61299;-70
2022/09/24 10:38:14;;;;;;;;;;;;;;;16.07;100.00;98878.89;104833;1273;61269;-71
2022/09/24 10:40:41;;;;;;;;;;;;;;;16.25;100.00;98874.95;104906;1275;75316;-69
2022/09/24 10:43:14;;;;;;;;;;;;;;;16.42;100.00;98870.85;104895;1274;61417;-69
2022/09/24 10:45:41;;;;;;;;;;;;;;;16.69;100.00;98870.79;104745;1274;73427;-71
2022/09/24 10:48:16;;;;;;;;;;;;;;;16.95;100.00;98859.41;104650;1273;61404;-70
2022/09/24 10:50:50;;;;;;;;;;;;;;;17.18;100.00;98859.70;104661;1273;61148;-70
2022/09/24 10:53:28;;;;;;;;;;;;;;;17.41;100.00;98865.69;104810;1274;75318;-70
2022/09/24 10:56:04;;;;;;;;;;;;;;;17.66;100.00;98864.39;104711;1273;69273;-71
2022/09/24 10:58:33;;;;;;;;;;;;;;;17.86;100.00;98859.23;104942;1273;73278;-70
2022/09/24 11:01:09;;;;;;;;;;;;;;;17.98;100.00;98856.73;104866;1274;61280;-72
2022/09/24 11:03:54;;;;;;;;;;;;;;;18.02;100.00;98853.89;104888;1274;61860;-70
2022/09/24 11:06:23;;;;;;;;;;;;;;;18.00;100.00;98848.61;104933;1273;73998;-72
2022/09/24 11:09:09;;;;;;;;;;;;;;;18.04;100.00;98847.52;104909;1273;70500;-70
2022/09/24 11:11:54;;;;;;;;;;;;;;;18.07;100.00;98838.80;104905;1273;73345;-69
2022/09/24 11:14:23;;;;;;;;;;;;;;;18.02;100.00;98836.10;104910;1274;61325;-72
2022/09/24 11:17:25;;;;;;;;;;;;;;;18.03;100.00;98831.11;104939;1273;62315;-69
2022/09/24 11:19:55;;;;;;;;;;;;;;;18.14;100.00;98829.06;104465;1277;76900;-71
2022/09/24 11:22:34;;;;;;;;;;;;;;;18.20;100.00;98824.89;104517;1277;68819;-70
2022/09/24 11:25:12;;;;;;;;;;;;;;;18.30;100.00;98823.50;104591;1277;73223;-70
2022/09/24 11:27:39;;;;;;;;;;;;;;;18.42;100.00;98822.95;104510;1277;61294;-70
2022/09/24 11:30:23;;;;;;;;;;;;;;;18.40;100.00;98821.36;104505;1278;61353;-71
2022/09/24 11:32:53;;;;;;;;;;;;;;;18.36;100.00;98819.13;104465;1277;76362;-71
2022/09/24 11:35:39;;;;;;;;;;;;;;;18.35;100.00;98818.45;104499;1277;69591;-70
2022/09/24 11:38:14;;;;;;;;;;;;;;;18.49;100.00;98819.80;104235;1277;73353;-71
2022/09/24 11:40:52;;;;;;;;;;;;;;;18.70;100.00;98822.52;104500;1277;61166;-72
2022/09/24 11:43:40;;;;;;;;;;;;;;;18.97;100.00;98819.19;104503;1277;61840;-70
2022/09/24 11:46:08;;;;;;;;;;;;;;;19.07;100.00;98817.73;104570;1278;75911;-71
2022/09/24 11:48:37;;;;;;;;;;;;;;;19.09;100.00;98817.00;104557;1277;70603;-70
2022/09/24 11:51:13;;;;;;;;;;;;;;;19.05;100.00;98815.55;104540;1277;74009;-71
2022/09/24 11:53:49;;;;;;;;;;;;;;;18.99;100.00;98810.86;104568;1275;61292;-70
2022/09/24 11:56:34;;;;;;;;;;;;;;;18.94;100.00;98810.67;104720;1273;61773;-71
2022/09/24 11:59:12;;;;;;;;;;;;;;;18.97;100.00;98814.30;104713;1273;74890;-70
2022/09/24 12:01:45;;;;;;;;;;;;;;;19.05;100.00;98811.51;104977;1273;69323;-70
2022/09/24 12:04:18;;;;;;;;;;;;;;;18.93;100.00;98805.17;104961;1273;73148;-70
2022/09/24 12:07:02;;;;;;;;;;;;;;;18.72;100.00;98808.20;104993;1273;61311;-71
2022/09/24 12:09:36;;;;;;;;;;;;;;;18.52;100.00;98809.96;104529;1273;60281;-71
2022/09/24 12:12:06;;;;;;;;;;;;;;;18.46;100.00;98805.65;104911;1273;76454;-71
2022/09/24 12:14:42;;;;;;;;;;;;;;;18.39;100.00;98806.38;104937;1273;69439;-70
2022/09/24 12:17:15;;;;;;;;;;;;;;;18.20;100.00;98809.25;104633;1273;72114;-71
2022/09/24 12:19:55;;;;;;;;;;;;;;;18.01;100.00;98809.13;104936;1273;61312;-71
2022/09/24 12:22:22;;;;;;;;;;;;;;;17.80;100.00;98812.17;105009;1273;61191;-71
2022/09/24 12:24:53;;;;;;;;;;;;;;;17.66;100.00;98808.52;104955;1273;76887;-71
2022/09/24 12:27:24;;;;;;;;;;;;;;;17.63;100.00;98810.39;104953;1273;70598;-71
2022/09/24 12:32:53;;;;;;;;;;;;;;;17.69;100.00;98798.90;104950;1273;61359;-70
2022/09/24 12:35:19;;;;;;;;;;;;;;;17.77;100.00;98796.96;104929;1273;61196;-70
2022/09/24 12:37:48;;;;;;;;;;;;;;;17.82;100.00;98792.56;104919;1273;76312;-70
2022/09/24 12:40:35;;;;;;;;;;;;;;;17.83;100.00;98789.05;104912;1273;69484;-71
2022/09/24 12:43:04;;;;;;;;;;;;;;;17.78;100.00;98791.52;104868;1274;73461;-72
2022/09/24 12:45:33;;;;;;;;;;;;;;;17.76;100.00;98794.94;104923;1273;61331;-69
2022/09/24 12:48:00;;;;;;;;;;;;;;;17.78;100.00;98792.73;104815;1273;61201;-69
2022/09/24 12:50:32;;;;;;;;;;;;;;;17.83;100.00;98787.23;104827;1273;75220;-70
2022/09/24 12:53:00;;;;;;;;;;;;;;;17.85;100.00;98787.60;104892;1273;68866;-70
2022/09/24 12:55:31;;;;;;;;;;;;;;;17.82;100.00;98784.54;104804;1273;73648;-70
2022/09/24 12:58:02;;;;;;;;;;;;;;;17.81;100.00;98780.29;104820;1273;61332;-70
2022/09/24 13:00:47;;;;;;;;;;;;;;;17.84;100.00;98779.48;104777;1273;61862;-69